WJA359 CYXE-CYYC
Flight info
| Callsign | WJA359 |
|---|---|
| Flight time | 0h 56m |
| Altitude | 34000 |
| Route | OVATA DCT BORIX DCT BIRKO BIRKO6 |
| Aircraft | B738/M-SDE2E3FGHIRWXY/LB1 |
Departure
| Time | 2026-05-08 15:14 |
|---|---|
| Airport | Saskatoon John G. Diefenbaker International Airport (CYXE) |
Arrival
| Time | 2026-05-08 16:11 |
|---|---|
| Airport | Calgary International Airport (CYYC) |
| Time | Latitude | Longitude | Altitude | Speed | Heading |
|---|---|---|---|---|---|
| 2026-05-08 14:57 | 52.17075 | -106.69085 | 1649 ft | 0 kts | 153° |
| 2026-05-08 15:07 | 52.17093 | -106.69100 | 1649 ft | 4 kts | 153° |
| 2026-05-08 15:08 | 52.17115 | -106.69122 | 1649 ft | 4 kts | 130° |
| 2026-05-08 15:08 | 52.17125 | -106.69155 | 1649 ft | 4 kts | 72° |
| 2026-05-08 15:08 | 52.17120 | -106.69172 | 1649 ft | 0 kts | 49° |
| 2026-05-08 15:11 | 52.17136 | -106.69145 | 1649 ft | 8 kts | 44° |
| 2026-05-08 15:11 | 52.17184 | -106.69067 | 1649 ft | 11 kts | 56° |
| 2026-05-08 15:11 | 52.17182 | -106.68936 | 1649 ft | 13 kts | 100° |
| 2026-05-08 15:11 | 52.17162 | -106.68765 | 1649 ft | 17 kts | 101° |
| 2026-05-08 15:12 | 52.17138 | -106.68560 | 1649 ft | 20 kts | 101° |
| 2026-05-08 15:12 | 52.17116 | -106.68343 | 1649 ft | 16 kts | 85° |
| 2026-05-08 15:12 | 52.17173 | -106.68277 | 1649 ft | 11 kts | 12° |
| 2026-05-08 15:12 | 52.17246 | -106.68251 | 1649 ft | 10 kts | 12° |
| 2026-05-08 15:13 | 52.17316 | -106.68228 | 1649 ft | 10 kts | 9° |
| 2026-05-08 15:13 | 52.17406 | -106.68225 | 1648 ft | 14 kts | 334° |
| 2026-05-08 15:13 | 52.17440 | -106.68368 | 1648 ft | 14 kts | 281° |
| 2026-05-08 15:13 | 52.17487 | -106.68759 | 1647 ft | 77 kts | 281° |
| 2026-05-08 15:14 | 52.17651 | -106.70110 | 1661 ft | 162 kts | 283° |
| 2026-05-08 15:14 | 52.17813 | -106.72129 | 2375 ft | 192 kts | 270° |
| 2026-05-08 15:14 | 52.17679 | -106.74358 | 3406 ft | 208 kts | 266° |
| 2026-05-08 15:14 | 52.17507 | -106.76780 | 4285 ft | 224 kts | 268° |
| 2026-05-08 15:15 | 52.17397 | -106.79372 | 5269 ft | 234 kts | 269° |
| 2026-05-08 15:15 | 52.17255 | -106.82092 | 6215 ft | 250 kts | 268° |
| 2026-05-08 15:15 | 52.17091 | -106.84942 | 7176 ft | 255 kts | 269° |
| 2026-05-08 15:15 | 52.16922 | -106.87849 | 8144 ft | 259 kts | 269° |
| 2026-05-08 15:16 | 52.16751 | -106.90783 | 9180 ft | 261 kts | 270° |
| 2026-05-08 15:16 | 52.16579 | -106.93746 | 10132 ft | 264 kts | 270° |
| 2026-05-08 15:16 | 52.16404 | -106.96812 | 10645 ft | 284 kts | 270° |
| 2026-05-08 15:16 | 52.16217 | -107.00180 | 10883 ft | 311 kts | 270° |
| 2026-05-08 15:17 | 52.16012 | -107.03735 | 11601 ft | 319 kts | 270° |
| 2026-05-08 15:17 | 52.15798 | -107.07345 | 12530 ft | 321 kts | 270° |
| 2026-05-08 15:17 | 52.15581 | -107.10977 | 13485 ft | 324 kts | 270° |
| 2026-05-08 15:17 | 52.15362 | -107.14642 | 14309 ft | 327 kts | 270° |
| 2026-05-08 15:18 | 52.15143 | -107.18292 | 15143 ft | 328 kts | 270° |
| 2026-05-08 15:18 | 52.14917 | -107.22056 | 15987 ft | 331 kts | 270° |
| 2026-05-08 15:18 | 52.14696 | -107.25751 | 16779 ft | 334 kts | 270° |
| 2026-05-08 15:18 | 52.14468 | -107.29531 | 17584 ft | 337 kts | 270° |
| 2026-05-08 15:19 | 52.14237 | -107.33349 | 18346 ft | 340 kts | 270° |
| 2026-05-08 15:19 | 52.14003 | -107.37197 | 19011 ft | 344 kts | 270° |
| 2026-05-08 15:19 | 52.13764 | -107.41091 | 19676 ft | 347 kts | 270° |
| 2026-05-08 15:19 | 52.13523 | -107.45018 | 20318 ft | 351 kts | 270° |
| 2026-05-08 15:20 | 52.13278 | -107.48995 | 20911 ft | 355 kts | 270° |
| 2026-05-08 15:20 | 52.13028 | -107.53011 | 21552 ft | 358 kts | 270° |
| 2026-05-08 15:20 | 52.12775 | -107.57059 | 22208 ft | 361 kts | 270° |
| 2026-05-08 15:20 | 52.12517 | -107.61146 | 22836 ft | 365 kts | 270° |
| 2026-05-08 15:21 | 52.12257 | -107.65268 | 23435 ft | 368 kts | 270° |
| 2026-05-08 15:21 | 52.11992 | -107.69424 | 23944 ft | 371 kts | 271° |
| 2026-05-08 15:21 | 52.11724 | -107.73606 | 24485 ft | 372 kts | 271° |
| 2026-05-08 15:21 | 52.11453 | -107.77807 | 25017 ft | 374 kts | 271° |
| 2026-05-08 15:22 | 52.11180 | -107.82033 | 25532 ft | 376 kts | 271° |
| 2026-05-08 15:22 | 52.10904 | -107.86278 | 26019 ft | 378 kts | 271° |
| 2026-05-08 15:22 | 52.10625 | -107.90547 | 26502 ft | 381 kts | 272° |
| 2026-05-08 15:22 | 52.10344 | -107.94840 | 26975 ft | 383 kts | 272° |
| 2026-05-08 15:23 | 52.10058 | -107.99164 | 27362 ft | 386 kts | 272° |
| 2026-05-08 15:23 | 52.09732 | -108.03527 | 27780 ft | 391 kts | 270° |
| 2026-05-08 15:23 | 52.09328 | -108.07915 | 28228 ft | 394 kts | 269° |
| 2026-05-08 15:23 | 52.08891 | -108.12329 | 28668 ft | 396 kts | 269° |
| 2026-05-08 15:24 | 52.08446 | -108.16761 | 29085 ft | 399 kts | 269° |
| 2026-05-08 15:24 | 52.07999 | -108.21220 | 29564 ft | 399 kts | 269° |
| 2026-05-08 15:24 | 52.07554 | -108.25665 | 30137 ft | 397 kts | 270° |
| 2026-05-08 15:24 | 52.07116 | -108.30072 | 30691 ft | 393 kts | 270° |
| 2026-05-08 15:25 | 52.06683 | -108.34443 | 31205 ft | 390 kts | 270° |
| 2026-05-08 15:25 | 52.06256 | -108.38785 | 31670 ft | 389 kts | 270° |
| 2026-05-08 15:25 | 52.05830 | -108.43121 | 32124 ft | 388 kts | 270° |
| 2026-05-08 15:25 | 52.05410 | -108.47390 | 32486 ft | 388 kts | 270° |
| 2026-05-08 15:26 | 52.04983 | -108.51721 | 32834 ft | 389 kts | 270° |
| 2026-05-08 15:26 | 52.04553 | -108.56059 | 33254 ft | 389 kts | 270° |
| 2026-05-08 15:26 | 52.04121 | -108.60387 | 33676 ft | 388 kts | 270° |
| 2026-05-08 15:26 | 52.03689 | -108.64717 | 33862 ft | 391 kts | 270° |
| 2026-05-08 15:27 | 52.02812 | -108.73446 | 33865 ft | 391 kts | 270° |
| 2026-05-08 15:27 | 52.01932 | -108.82056 | 33873 ft | 385 kts | 270° |
| 2026-05-08 15:28 | 52.01055 | -108.90654 | 33881 ft | 386 kts | 270° |
| 2026-05-08 15:28 | 52.00169 | -108.99263 | 33868 ft | 387 kts | 269° |
| 2026-05-08 15:29 | 51.99275 | -109.07888 | 33872 ft | 388 kts | 269° |
| 2026-05-08 15:29 | 51.98370 | -109.16544 | 33877 ft | 390 kts | 269° |
| 2026-05-08 15:30 | 51.97455 | -109.25231 | 33871 ft | 391 kts | 269° |
| 2026-05-08 15:30 | 51.96532 | -109.33926 | 33868 ft | 392 kts | 269° |
| 2026-05-08 15:31 | 51.95146 | -109.42543 | 33867 ft | 403 kts | 259° |
| 2026-05-08 15:31 | 51.94347 | -109.46847 | 33864 ft | 391 kts | 270° |
| 2026-05-08 15:31 | 51.94088 | -109.51173 | 33873 ft | 385 kts | 274° |
| 2026-05-08 15:32 | 51.93595 | -109.59789 | 33863 ft | 388 kts | 271° |
| 2026-05-08 15:32 | 51.92795 | -109.68465 | 33869 ft | 390 kts | 269° |
| 2026-05-08 15:33 | 51.91855 | -109.77132 | 33868 ft | 390 kts | 269° |
| 2026-05-08 15:33 | 51.90890 | -109.85778 | 33867 ft | 390 kts | 269° |
| 2026-05-08 15:34 | 51.89926 | -109.94416 | 33861 ft | 388 kts | 268° |
| 2026-05-08 15:34 | 51.88958 | -110.03027 | 33861 ft | 389 kts | 268° |
| 2026-05-08 15:35 | 51.87978 | -110.11648 | 33859 ft | 390 kts | 268° |
| 2026-05-08 15:35 | 51.86989 | -110.20295 | 33863 ft | 391 kts | 268° |
| 2026-05-08 15:36 | 51.86162 | -110.27481 | 33863 ft | 391 kts | 268° |
| 2026-05-08 15:36 | 51.84989 | -110.37606 | 33814 ft | 392 kts | 267° |
| 2026-05-08 15:37 | 51.83978 | -110.46266 | 33858 ft | 392 kts | 267° |
| 2026-05-08 15:37 | 51.82960 | -110.54945 | 33866 ft | 393 kts | 267° |
| 2026-05-08 15:38 | 51.81941 | -110.63570 | 33864 ft | 394 kts | 267° |
| 2026-05-08 15:38 | 51.80906 | -110.72271 | 33873 ft | 394 kts | 267° |
| 2026-05-08 15:39 | 51.79864 | -110.80967 | 33870 ft | 394 kts | 267° |
| 2026-05-08 15:39 | 51.78816 | -110.89655 | 33868 ft | 394 kts | 266° |
| 2026-05-08 15:40 | 51.77762 | -110.98333 | 33874 ft | 394 kts | 266° |
| 2026-05-08 15:40 | 51.76703 | -111.07003 | 33873 ft | 393 kts | 266° |
| 2026-05-08 15:41 | 51.75639 | -111.15660 | 33874 ft | 393 kts | 266° |
| 2026-05-08 15:41 | 51.74567 | -111.24323 | 33876 ft | 394 kts | 266° |
| 2026-05-08 15:42 | 51.73489 | -111.32983 | 33832 ft | 393 kts | 266° |
| 2026-05-08 15:42 | 51.72406 | -111.41622 | 33867 ft | 393 kts | 266° |
| 2026-05-08 15:43 | 51.71317 | -111.50258 | 33882 ft | 393 kts | 265° |
| 2026-05-08 15:43 | 51.70220 | -111.58908 | 33506 ft | 392 kts | 265° |
| 2026-05-08 15:44 | 51.69672 | -111.63177 | 33089 ft | 386 kts | 265° |
| 2026-05-08 15:44 | 51.69132 | -111.67379 | 32710 ft | 381 kts | 265° |
| 2026-05-08 15:44 | 51.68597 | -111.71538 | 32281 ft | 377 kts | 265° |
| 2026-05-08 15:44 | 51.68065 | -111.75664 | 31869 ft | 374 kts | 265° |
| 2026-05-08 15:45 | 51.67539 | -111.79746 | 31420 ft | 370 kts | 265° |
| 2026-05-08 15:45 | 51.67015 | -111.83792 | 31060 ft | 366 kts | 265° |
| 2026-05-08 15:45 | 51.66496 | -111.87792 | 30662 ft | 364 kts | 265° |
| 2026-05-08 15:45 | 51.65979 | -111.91771 | 30278 ft | 361 kts | 265° |
| 2026-05-08 15:46 | 51.65465 | -111.95717 | 29864 ft | 359 kts | 265° |
| 2026-05-08 15:46 | 51.64959 | -111.99586 | 29416 ft | 356 kts | 265° |
| 2026-05-08 15:46 | 51.64449 | -112.03471 | 28994 ft | 353 kts | 265° |
| 2026-05-08 15:46 | 51.63943 | -112.07313 | 28600 ft | 349 kts | 265° |
| 2026-05-08 15:47 | 51.63440 | -112.11122 | 28188 ft | 346 kts | 265° |
| 2026-05-08 15:47 | 51.62941 | -112.14895 | 27786 ft | 343 kts | 265° |
| 2026-05-08 15:47 | 51.62445 | -112.18628 | 27408 ft | 340 kts | 265° |
| 2026-05-08 15:47 | 51.61953 | -112.22330 | 27005 ft | 337 kts | 265° |
| 2026-05-08 15:48 | 51.60977 | -112.29647 | 26236 ft | 331 kts | 265° |
| 2026-05-08 15:48 | 51.60494 | -112.33258 | 25856 ft | 329 kts | 265° |
| 2026-05-08 15:48 | 51.60012 | -112.36845 | 25488 ft | 327 kts | 264° |
| 2026-05-08 15:49 | 51.59532 | -112.40412 | 25116 ft | 326 kts | 264° |
| 2026-05-08 15:49 | 51.59053 | -112.43968 | 24742 ft | 324 kts | 264° |
| 2026-05-08 15:49 | 51.58575 | -112.47500 | 24375 ft | 323 kts | 264° |
| 2026-05-08 15:49 | 51.58097 | -112.51026 | 24007 ft | 322 kts | 264° |
| 2026-05-08 15:50 | 51.57621 | -112.54536 | 23639 ft | 321 kts | 264° |
| 2026-05-08 15:50 | 51.57143 | -112.58043 | 23230 ft | 320 kts | 264° |
| 2026-05-08 15:50 | 51.56666 | -112.61533 | 22814 ft | 319 kts | 264° |
| 2026-05-08 15:50 | 51.56190 | -112.65004 | 22423 ft | 317 kts | 264° |
| 2026-05-08 15:51 | 51.55717 | -112.68448 | 22067 ft | 314 kts | 264° |
| 2026-05-08 15:51 | 51.55246 | -112.71870 | 21688 ft | 313 kts | 264° |
| 2026-05-08 15:51 | 51.54778 | -112.75266 | 21341 ft | 310 kts | 263° |
| 2026-05-08 15:51 | 51.54312 | -112.78635 | 20972 ft | 308 kts | 263° |
| 2026-05-08 15:52 | 51.53849 | -112.81979 | 20617 ft | 306 kts | 263° |
| 2026-05-08 15:52 | 51.53542 | -112.84189 | 20379 ft | 305 kts | 263° |
| 2026-05-08 15:52 | 51.53081 | -112.87509 | 20037 ft | 304 kts | 263° |
| 2026-05-08 15:52 | 51.52471 | -112.91883 | 19592 ft | 302 kts | 263° |
| 2026-05-08 15:53 | 51.52012 | -112.95170 | 19237 ft | 302 kts | 263° |
| 2026-05-08 15:53 | 51.51553 | -112.98452 | 18890 ft | 301 kts | 263° |
| 2026-05-08 15:53 | 51.51094 | -113.01720 | 18547 ft | 300 kts | 263° |
| 2026-05-08 15:53 | 51.50784 | -113.03925 | 18316 ft | 299 kts | 263° |
| 2026-05-08 15:54 | 51.50326 | -113.07177 | 17927 ft | 299 kts | 262° |
| 2026-05-08 15:54 | 51.49868 | -113.10426 | 17553 ft | 298 kts | 262° |
| 2026-05-08 15:54 | 51.49418 | -113.13614 | 17190 ft | 296 kts | 262° |
| 2026-05-08 15:54 | 51.48956 | -113.16870 | 16829 ft | 295 kts | 262° |
| 2026-05-08 15:55 | 51.48502 | -113.20064 | 16464 ft | 293 kts | 262° |
| 2026-05-08 15:55 | 51.47368 | -113.26335 | 15798 ft | 302 kts | 248° |
| 2026-05-08 15:55 | 51.46221 | -113.29220 | 15478 ft | 314 kts | 237° |
| 2026-05-08 15:56 | 51.44821 | -113.31952 | 15131 ft | 320 kts | 234° |
| 2026-05-08 15:56 | 51.43377 | -113.34682 | 14766 ft | 321 kts | 234° |
| 2026-05-08 15:56 | 51.41938 | -113.37395 | 14392 ft | 319 kts | 234° |
| 2026-05-08 15:56 | 51.40506 | -113.40106 | 14039 ft | 318 kts | 234° |
| 2026-05-08 15:57 | 51.39088 | -113.42804 | 13693 ft | 316 kts | 234° |
| 2026-05-08 15:57 | 51.37675 | -113.45502 | 13295 ft | 315 kts | 234° |
| 2026-05-08 15:57 | 51.36270 | -113.48189 | 12914 ft | 314 kts | 234° |
| 2026-05-08 15:57 | 51.34876 | -113.50857 | 12552 ft | 312 kts | 233° |
| 2026-05-08 15:58 | 51.33492 | -113.53509 | 12194 ft | 310 kts | 233° |
| 2026-05-08 15:58 | 51.32111 | -113.56148 | 11845 ft | 308 kts | 233° |
| 2026-05-08 15:58 | 51.30737 | -113.58771 | 11491 ft | 307 kts | 233° |
| 2026-05-08 15:58 | 51.29373 | -113.61370 | 11158 ft | 305 kts | 233° |
| 2026-05-08 15:59 | 51.28015 | -113.63960 | 10815 ft | 303 kts | 232° |
| 2026-05-08 15:59 | 51.26663 | -113.66537 | 10481 ft | 303 kts | 232° |
| 2026-05-08 15:59 | 51.25318 | -113.69100 | 10274 ft | 298 kts | 232° |
| 2026-05-08 15:59 | 51.24004 | -113.71605 | 10130 ft | 290 kts | 232° |
| 2026-05-08 16:00 | 51.22728 | -113.74033 | 10017 ft | 281 kts | 232° |
| 2026-05-08 16:00 | 51.21485 | -113.76401 | 9779 ft | 279 kts | 232° |
| 2026-05-08 16:00 | 51.20239 | -113.78763 | 9495 ft | 277 kts | 232° |
| 2026-05-08 16:00 | 51.19006 | -113.81101 | 9214 ft | 275 kts | 232° |
| 2026-05-08 16:01 | 51.17745 | -113.83378 | 8923 ft | 275 kts | 223° |
| 2026-05-08 16:01 | 51.16049 | -113.84745 | 8639 ft | 277 kts | 193° |
| 2026-05-08 16:01 | 51.14144 | -113.84928 | 8520 ft | 271 kts | 181° |
| 2026-05-08 16:01 | 51.12275 | -113.84898 | 8366 ft | 266 kts | 181° |
| 2026-05-08 16:02 | 51.10452 | -113.84873 | 8249 ft | 259 kts | 181° |
| 2026-05-08 16:02 | 51.08666 | -113.84863 | 8135 ft | 253 kts | 180° |
| 2026-05-08 16:02 | 51.06925 | -113.84726 | 8012 ft | 247 kts | 182° |
| 2026-05-08 16:02 | 51.05231 | -113.84778 | 7924 ft | 240 kts | 182° |
| 2026-05-08 16:03 | 51.03563 | -113.84822 | 7838 ft | 240 kts | 183° |
| 2026-05-08 16:03 | 51.01898 | -113.85032 | 7746 ft | 243 kts | 184° |
| 2026-05-08 16:03 | 51.00189 | -113.84926 | 7625 ft | 245 kts | 177° |
| 2026-05-08 16:03 | 50.98517 | -113.84816 | 7530 ft | 244 kts | 181° |
| 2026-05-08 16:04 | 50.96801 | -113.84900 | 7438 ft | 243 kts | 186° |
| 2026-05-08 16:04 | 50.95130 | -113.84958 | 7317 ft | 243 kts | 181° |
| 2026-05-08 16:04 | 50.93445 | -113.84939 | 7213 ft | 241 kts | 181° |
| 2026-05-08 16:04 | 50.91783 | -113.85091 | 7102 ft | 237 kts | 197° |
| 2026-05-08 16:05 | 50.90458 | -113.86464 | 7015 ft | 227 kts | 237° |
| 2026-05-08 16:05 | 50.89866 | -113.88742 | 6929 ft | 226 kts | 265° |
| 2026-05-08 16:05 | 50.89968 | -113.91198 | 6852 ft | 226 kts | 288° |
| 2026-05-08 16:05 | 50.90663 | -113.93425 | 6760 ft | 226 kts | 301° |
| 2026-05-08 16:06 | 50.91475 | -113.95582 | 6678 ft | 230 kts | 301° |
| 2026-05-08 16:06 | 50.92349 | -113.97712 | 6546 ft | 230 kts | 313° |
| 2026-05-08 16:06 | 50.93672 | -113.98975 | 6359 ft | 230 kts | 345° |
| 2026-05-08 16:06 | 50.95261 | -113.99193 | 6163 ft | 230 kts | 2° |
| 2026-05-08 16:07 | 50.96842 | -113.99029 | 5957 ft | 223 kts | 0° |
| 2026-05-08 16:07 | 50.98353 | -113.99013 | 5732 ft | 210 kts | 358° |
| 2026-05-08 16:07 | 50.99765 | -113.99025 | 5531 ft | 196 kts | 358° |
| 2026-05-08 16:07 | 51.01082 | -113.99028 | 5341 ft | 183 kts | 359° |
| 2026-05-08 16:08 | 51.02304 | -113.99028 | 5147 ft | 171 kts | 358° |
| 2026-05-08 16:08 | 51.03447 | -113.99028 | 4990 ft | 161 kts | 358° |
| 2026-05-08 16:08 | 51.04539 | -113.99029 | 4860 ft | 151 kts | 358° |
| 2026-05-08 16:08 | 51.05546 | -113.99028 | 4722 ft | 141 kts | 358° |
| 2026-05-08 16:09 | 51.06517 | -113.99027 | 4556 ft | 140 kts | 358° |
| 2026-05-08 16:09 | 51.07513 | -113.99027 | 4337 ft | 146 kts | 358° |
| 2026-05-08 16:09 | 51.08538 | -113.99019 | 4096 ft | 147 kts | 0° |
| 2026-05-08 16:09 | 51.09555 | -113.98986 | 3894 ft | 145 kts | 359° |
| 2026-05-08 16:10 | 51.10549 | -113.99005 | 3726 ft | 140 kts | 356° |
| 2026-05-08 16:10 | 51.11515 | -113.99030 | 3598 ft | 137 kts | 356° |
| 2026-05-08 16:10 | 51.12416 | -113.99031 | 3565 ft | 118 kts | 356° |
| 2026-05-08 16:10 | 51.13131 | -113.99054 | 3561 ft | 83 kts | 360° |
| 2026-05-08 16:11 | 51.13584 | -113.99049 | 3570 ft | 34 kts | 0° |
| 2026-05-08 16:11 | 51.13780 | -113.99051 | 3576 ft | 21 kts | 359° |
| 2026-05-08 16:11 | 51.13860 | -113.99140 | 3574 ft | 11 kts | 273° |
| 2026-05-08 16:11 | 51.13863 | -113.99255 | 3576 ft | 10 kts | 265° |
| 2026-05-08 16:12 | 51.13846 | -113.99296 | 3576 ft | 6 kts | 210° |
| 2026-05-08 16:12 | 51.13791 | -113.99301 | 3577 ft | 9 kts | 180° |
| 2026-05-08 16:12 | 51.13721 | -113.99302 | 3576 ft | 11 kts | 180° |
| 2026-05-08 16:12 | 51.13639 | -113.99303 | 3576 ft | 12 kts | 180° |
| 2026-05-08 16:13 | 51.13549 | -113.99304 | 3568 ft | 14 kts | 181° |
| 2026-05-08 16:13 | 51.13449 | -113.99306 | 3563 ft | 15 kts | 180° |
| 2026-05-08 16:13 | 51.13340 | -113.99306 | 3570 ft | 16 kts | 178° |
| 2026-05-08 16:13 | 51.13228 | -113.99305 | 3559 ft | 16 kts | 184° |
| 2026-05-08 16:14 | 51.13163 | -113.99423 | 3565 ft | 16 kts | 265° |
| 2026-05-08 16:14 | 51.13163 | -113.99593 | 3565 ft | 15 kts | 271° |
| 2026-05-08 16:14 | 51.13166 | -113.99756 | 3565 ft | 14 kts | 269° |
| 2026-05-08 16:14 | 51.13145 | -113.99847 | 3565 ft | 7 kts | 211° |
| 2026-05-08 16:15 | 51.13095 | -113.99853 | 3565 ft | 7 kts | 180° |
| 2026-05-08 16:15 | 51.13083 | -113.99852 | 3560 ft | 2 kts | 180° |
| 2026-05-08 16:15 | 51.13079 | -113.99852 | 3560 ft | 0 kts | 179° |
| 2026-05-08 16:42 | 51.12656 | -113.99829 | 5417 ft | 193 kts | 168° |
| 2026-05-08 16:43 | 51.10760 | -113.98120 | 4724 ft | 291 kts | 126° |
| 2026-05-08 16:43 | 51.10242 | -113.96092 | 4321 ft | 310 kts | 90° |
| 2026-05-08 16:43 | 51.10668 | -113.93045 | 4476 ft | 272 kts | 48° |
| 2026-05-08 16:43 | 51.12131 | -113.91561 | 4537 ft | 261 kts | 8° |
| 2026-05-08 16:44 | 51.14075 | -113.92311 | 4521 ft | 258 kts | 320° |
| 2026-05-08 16:44 | 51.14842 | -113.94199 | 4479 ft | 270 kts | 288° |
| 2026-05-08 16:44 | 51.14564 | -113.97494 | 4522 ft | 292 kts | 242° |
| 2026-05-08 16:44 | 51.13154 | -113.99391 | 4282 ft | 430 kts | 195° |